createdAt,value
2016-11-05T00:00:47.831Z,76.9
2016-11-05T00:01:49.275Z,76.9
2016-11-05T00:02:50.713Z,76.9
2016-11-05T00:03:52.688Z,76.9
2016-11-05T00:04:54.190Z,76.9
2016-11-05T00:05:55.632Z,76.8
2016-11-05T00:06:57.071Z,76.9
2016-11-05T00:07:59.014Z,76.8
2016-11-05T00:09:00.449Z,76.8
2016-11-05T00:10:01.885Z,76.8
2016-11-05T00:11:03.327Z,76.8
2016-11-05T00:12:05.269Z,76.8
2016-11-05T00:13:06.709Z,76.8
2016-11-05T00:14:08.147Z,76.8
2016-11-05T00:15:09.591Z,76.8
2016-11-05T00:17:12.936Z,76.8
2016-11-05T00:18:14.381Z,76.8
2016-11-05T00:19:16.327Z,76.8
2016-11-05T00:20:17.764Z,76.8
2016-11-05T00:22:20.604Z,76.8
2016-11-05T00:23:22.545Z,76.8
2016-11-05T00:24:23.985Z,76.8
2016-11-05T00:25:25.422Z,76.8
2016-11-05T00:26:27.368Z,76.8
2016-11-05T00:27:28.799Z,76.8
2016-11-05T00:28:30.244Z,76.8
2016-11-05T00:29:31.682Z,76.8
2016-11-05T00:30:33.622Z,76.8
2016-11-05T00:31:35.057Z,76.8
2016-11-05T00:33:38.402Z,76.8
2016-11-05T00:34:39.843Z,76.8
2016-11-05T00:35:41.282Z,76.8
2016-11-05T00:36:42.717Z,76.8
2016-11-05T00:37:44.663Z,76.8
2016-11-05T00:39:47.518Z,76.8
2016-11-05T00:40:49.455Z,76.8
2016-11-05T00:41:50.893Z,76.8
2016-11-05T00:42:52.331Z,76.8
2016-11-05T00:43:53.907Z,76.8
2016-11-05T00:44:55.343Z,76.8
2016-11-05T00:45:57.300Z,76.8
2016-11-05T00:48:00.134Z,76.8
2016-11-05T00:49:02.078Z,76.8
2016-11-05T00:50:03.510Z,76.8
2016-11-05T00:52:06.353Z,76.8
2016-11-05T00:53:08.291Z,76.8
2016-11-05T00:54:09.731Z,76.8
2016-11-05T00:55:11.173Z,76.8
2016-11-05T00:56:13.117Z,76.8
2016-11-05T00:57:14.558Z,76.8
2016-11-05T00:58:16.030Z,76.8
2016-11-05T00:59:17.469Z,76.8
2016-11-05T01:00:19.053Z,76.8
2016-11-05T01:01:20.997Z,76.8
2016-11-05T01:02:22.440Z,76.8
2016-11-05T01:04:25.282Z,76.8
2016-11-05T01:05:27.225Z,76.8
2016-11-05T01:06:28.662Z,76.8
2016-11-05T01:07:30.101Z,76.8
2016-11-05T01:08:31.535Z,76.8
2016-11-05T01:09:33.476Z,76.9
2016-11-05T01:10:34.910Z,76.8
2016-11-05T01:11:36.346Z,76.9
2016-11-05T01:12:38.296Z,76.9
2016-11-05T01:13:39.738Z,76.9
2016-11-05T01:14:41.178Z,76.9
2016-11-05T01:15:42.612Z,76.9
2016-11-05T01:16:44.558Z,76.9
2016-11-05T01:17:45.992Z,76.9
2016-11-05T01:18:47.432Z,76.9
2016-11-05T01:19:49.377Z,76.9
2016-11-05T01:20:50.817Z,76.8
2016-11-05T01:21:52.256Z,76.8
2016-11-05T01:22:53.697Z,76.8
2016-11-05T01:23:55.642Z,76.9
2016-11-05T01:24:57.083Z,76.9
2016-11-05T01:25:58.524Z,76.8
2016-11-05T01:26:59.964Z,76.9
2016-11-05T01:28:01.910Z,76.9
2016-11-05T01:30:04.892Z,76.9
2016-11-05T01:31:06.326Z,76.9
2016-11-05T01:33:09.671Z,76.9
2016-11-05T01:35:13.012Z,76.9
2016-11-05T01:36:14.450Z,76.9
2016-11-05T01:38:17.285Z,76.9
2016-11-05T01:39:19.223Z,76.9
2016-11-05T01:40:20.664Z,76.9
2016-11-05T01:41:22.097Z,76.9
2016-11-05T01:42:24.038Z,76.9
2016-11-05T01:43:25.337Z,76.9
2016-11-05T01:44:26.777Z,76.9
2016-11-05T01:45:28.717Z,76.9
2016-11-05T01:46:30.157Z,76.9
2016-11-05T01:47:31.596Z,76.9
2016-11-05T01:48:33.538Z,76.9
2016-11-05T01:49:34.971Z,76.9
2016-11-05T01:50:36.412Z,76.9
2016-11-05T01:51:37.851Z,76.9
2016-11-05T01:52:39.796Z,76.9
2016-11-05T01:53:41.229Z,76.9
2016-11-05T01:54:42.665Z,76.9
2016-11-05T01:55:44.098Z,76.9
2016-11-05T01:57:47.437Z,76.9
2016-11-05T01:58:48.877Z,76.9
2016-11-05T01:59:50.818Z,76.9
2016-11-05T02:00:52.261Z,76.9
2016-11-05T02:01:53.698Z,76.9
2016-11-05T02:02:55.635Z,76.9
2016-11-05T02:03:57.074Z,76.9
2016-11-05T02:04:58.512Z,76.9
2016-11-05T02:05:59.985Z,76.9
2016-11-05T02:07:01.927Z,76.9
2016-11-05T02:08:03.403Z,76.9
2016-11-05T02:09:04.847Z,76.9
2016-11-05T02:10:06.283Z,76.9
2016-11-05T02:11:08.223Z,76.9
2016-11-05T02:12:09.660Z,76.9
2016-11-05T02:13:11.100Z,76.9
2016-11-05T02:14:12.539Z,76.9
2016-11-05T02:15:14.482Z,76.9
2016-11-05T02:16:15.916Z,76.9
2016-11-05T02:17:17.352Z,76.9
2016-11-05T02:19:20.696Z,76.9
2016-11-05T02:20:22.132Z,76.9
2016-11-05T02:21:23.571Z,76.9
2016-11-05T02:22:25.514Z,76.9
2016-11-05T02:23:26.990Z,76.9
2016-11-05T02:24:28.426Z,76.9
2016-11-05T02:25:29.867Z,76.9
2016-11-05T02:26:31.815Z,76.9
2016-11-05T02:27:33.251Z,76.9
2016-11-05T02:28:34.686Z,76.9
2016-11-05T02:29:36.620Z,76.9
2016-11-05T02:30:38.064Z,76.9
2016-11-05T02:31:39.505Z,76.9
2016-11-05T02:32:40.954Z,76.9
2016-11-05T02:33:42.898Z,76.9
2016-11-05T02:34:44.336Z,76.9
2016-11-05T02:35:45.774Z,76.9
2016-11-05T02:37:49.126Z,76.9
2016-11-05T02:38:50.566Z,76.9
2016-11-05T02:39:52.004Z,76.9
2016-11-05T02:40:53.944Z,76.9
2016-11-05T02:41:55.379Z,76.9
2016-11-05T02:42:56.815Z,76.9
2016-11-05T02:43:58.758Z,76.9
2016-11-05T02:45:00.198Z,76.9
2016-11-05T02:46:01.644Z,76.9
2016-11-05T02:47:03.084Z,76.9
2016-11-05T02:48:05.028Z,76.9
2016-11-05T02:49:06.464Z,76.9
2016-11-05T02:50:07.899Z,76.9
2016-11-05T02:51:09.342Z,76.9
2016-11-05T02:52:11.285Z,76.9
2016-11-05T02:53:12.721Z,76.9
2016-11-05T02:54:14.157Z,76.9
2016-11-05T02:55:16.103Z,76.9
2016-11-05T02:56:17.553Z,76.9
2016-11-05T02:57:18.991Z,76.9
2016-11-05T02:58:20.425Z,76.9
2016-11-05T02:59:22.368Z,76.9
2016-11-05T03:00:23.804Z,76.9
2016-11-05T03:01:25.244Z,76.9
2016-11-05T03:03:28.595Z,76.9
2016-11-05T03:05:31.934Z,76.9
2016-11-05T03:06:33.377Z,76.9
2016-11-05T03:07:34.814Z,76.9
2016-11-05T03:08:36.247Z,76.9
2016-11-05T03:09:38.184Z,76.9
2016-11-05T03:10:39.619Z,76.9
2016-11-05T03:11:41.053Z,76.9
2016-11-05T03:12:42.993Z,76.9
2016-11-05T03:13:44.432Z,76.9
2016-11-05T03:14:45.875Z,76.9
2016-11-05T03:15:47.318Z,76.9
2016-11-05T03:16:49.258Z,76.9
2016-11-05T03:17:50.696Z,76.9
2016-11-05T03:18:52.137Z,76.9
2016-11-05T03:19:53.580Z,76.9
2016-11-05T03:20:55.527Z,76.9
2016-11-05T03:21:56.969Z,76.9
2016-11-05T03:22:58.411Z,76.9
2016-11-05T03:24:00.367Z,76.9
2016-11-05T03:25:01.817Z,76.9
2016-11-05T03:26:03.256Z,76.9
2016-11-05T03:28:06.267Z,76.9
2016-11-05T03:29:08.207Z,76.9
2016-11-05T03:30:09.645Z,76.9
2016-11-05T03:31:11.086Z,76.9
2016-11-05T03:32:13.033Z,76.9
2016-11-05T03:33:14.468Z,76.9
2016-11-05T03:34:15.912Z,76.9
2016-11-05T03:35:17.354Z,76.9
2016-11-05T03:37:20.692Z,76.9
2016-11-05T03:39:24.031Z,76.9
2016-11-05T03:40:25.464Z,76.9
2016-11-05T03:41:26.901Z,76.9
2016-11-05T03:42:28.849Z,76.9
2016-11-05T03:43:30.292Z,76.9
2016-11-05T03:45:33.357Z,76.9
2016-11-05T03:46:34.973Z,76.9
2016-11-05T03:47:36.409Z,76.9
2016-11-05T03:48:38.351Z,76.9
2016-11-05T03:50:41.190Z,76.9
2016-11-05T03:51:42.697Z,76.9
2016-11-05T03:52:44.645Z,76.9
2016-11-05T03:53:46.080Z,76.9
2016-11-05T03:54:47.519Z,76.9
2016-11-05T03:55:48.958Z,76.9
2016-11-05T03:56:50.904Z,76.9
2016-11-05T03:57:52.352Z,76.9
2016-11-05T03:58:53.785Z,76.9
2016-11-05T04:00:57.132Z,76.9
2016-11-05T04:01:58.571Z,76.9
2016-11-05T04:03:00.508Z,76.9
2016-11-05T04:04:01.945Z,76.9
2016-11-05T04:05:03.515Z,76.9
2016-11-05T04:06:04.950Z,76.9
2016-11-05T04:07:06.387Z,76.9
2016-11-05T04:08:08.335Z,76.9
2016-11-05T04:09:09.774Z,76.9
2016-11-05T04:10:11.213Z,76.9
2016-11-05T04:11:13.157Z,76.9
2016-11-05T04:13:15.997Z,76.9
2016-11-05T04:14:17.958Z,76.9
2016-11-05T04:15:19.394Z,76.9
2016-11-05T04:16:20.835Z,76.9
2016-11-05T04:17:22.275Z,76.9
2016-11-05T04:18:24.215Z,76.9
2016-11-05T04:19:25.653Z,76.9
2016-11-05T04:20:27.088Z,76.8
2016-11-05T04:21:29.033Z,76.9
2016-11-05T04:22:30.474Z,76.9
2016-11-05T04:23:31.913Z,76.9
2016-11-05T04:24:33.356Z,76.9
2016-11-05T04:26:36.704Z,76.9
2016-11-05T04:27:38.148Z,76.9
2016-11-05T04:28:40.093Z,76.9
2016-11-05T04:29:41.532Z,76.9
2016-11-05T04:31:44.871Z,76.8
2016-11-05T04:32:46.305Z,76.8
2016-11-05T04:33:47.744Z,76.8
2016-11-05T04:34:49.183Z,76.8
2016-11-05T04:35:51.120Z,76.8
2016-11-05T04:36:52.566Z,76.8
2016-11-05T04:37:54.003Z,76.8
2016-11-05T04:38:55.950Z,76.8
2016-11-05T04:39:57.390Z,76.8
2016-11-05T04:40:58.824Z,76.8
2016-11-05T04:42:00.266Z,76.8
2016-11-05T04:43:02.209Z,76.8
2016-11-05T04:44:03.644Z,76.8
2016-11-05T04:45:05.110Z,76.8
2016-11-05T04:46:07.054Z,76.8
2016-11-05T04:47:08.497Z,76.8
2016-11-05T04:48:09.938Z,76.8
2016-11-05T04:49:11.375Z,76.8
2016-11-05T04:50:13.315Z,76.8
2016-11-05T04:51:14.761Z,76.8
2016-11-05T04:52:16.203Z,76.8
2016-11-05T04:53:18.144Z,76.8
2016-11-05T04:54:19.579Z,76.8
2016-11-05T04:55:21.021Z,76.8
2016-11-05T04:57:24.366Z,76.8
2016-11-05T04:58:25.844Z,76.9
2016-11-05T04:59:27.321Z,76.9
2016-11-05T05:00:28.959Z,76.9
2016-11-05T05:01:30.902Z,76.8
2016-11-05T05:02:32.338Z,76.9
2016-11-05T05:03:33.776Z,76.9
2016-11-05T05:04:35.215Z,76.8
2016-11-05T05:05:37.157Z,76.8
2016-11-05T05:06:38.602Z,76.8
2016-11-05T05:07:40.038Z,76.9
2016-11-05T05:08:41.979Z,76.9
2016-11-05T05:09:43.418Z,76.9
2016-11-05T05:11:46.763Z,76.9
2016-11-05T05:12:48.199Z,76.9
2016-11-05T05:13:49.643Z,76.9
2016-11-05T05:14:51.084Z,76.9
2016-11-05T05:15:53.026Z,76.9
2016-11-05T05:16:54.464Z,76.9
2016-11-05T05:17:55.903Z,76.9
2016-11-05T05:18:57.853Z,76.9
2016-11-05T05:21:00.883Z,76.9
2016-11-05T05:22:02.322Z,76.9
2016-11-05T05:23:03.759Z,76.8
2016-11-05T05:25:07.107Z,76.8
2016-11-05T05:26:08.553Z,76.8
2016-11-05T05:27:10.506Z,76.8
2016-11-05T05:28:11.950Z,76.8
2016-11-05T05:29:13.387Z,76.8
2016-11-05T05:30:14.829Z,76.8
2016-11-05T05:31:16.772Z,76.8
2016-11-05T05:33:19.614Z,76.8
2016-11-05T05:34:21.555Z,76.8
2016-11-05T05:35:22.996Z,76.8
2016-11-05T05:36:24.439Z,76.8
2016-11-05T05:37:26.379Z,76.8
2016-11-05T05:38:27.812Z,76.8
2016-11-05T05:39:29.245Z,76.8
2016-11-05T05:40:30.685Z,76.8
2016-11-05T05:41:32.633Z,76.8
2016-11-05T05:43:35.469Z,76.8
2016-11-05T05:44:37.413Z,76.8
2016-11-05T05:45:38.852Z,76.9
2016-11-05T05:46:40.290Z,76.9
2016-11-05T05:47:41.732Z,76.9
2016-11-05T05:48:43.670Z,76.9
2016-11-05T05:49:45.110Z,76.9
2016-11-05T05:50:46.549Z,77
2016-11-05T05:51:48.486Z,77
2016-11-05T05:52:49.932Z,77
2016-11-05T05:53:51.372Z,77
2016-11-05T05:54:52.816Z,77
2016-11-05T05:55:54.750Z,77
2016-11-05T05:56:56.192Z,77
2016-11-05T05:57:57.627Z,77
2016-11-05T05:58:59.066Z,77
2016-11-05T06:00:01.015Z,77
2016-11-05T06:01:02.453Z,77
2016-11-05T06:03:05.852Z,77
2016-11-05T06:04:07.331Z,77
2016-11-05T06:06:10.174Z,77
2016-11-05T06:07:12.114Z,77
2016-11-05T06:08:13.551Z,77
2016-11-05T06:09:15.000Z,77
2016-11-05T06:10:16.813Z,77
2016-11-05T06:11:18.253Z,77
2016-11-05T06:12:19.722Z,77
2016-11-05T06:13:21.674Z,77
2016-11-05T06:14:23.115Z,77
2016-11-05T06:15:24.558Z,77
2016-11-05T06:16:25.993Z,77
2016-11-05T06:17:27.933Z,77
2016-11-05T06:18:29.372Z,77
2016-11-05T06:19:30.805Z,77
2016-11-05T06:20:32.253Z,77
2016-11-05T06:21:34.199Z,77
2016-11-05T06:22:35.639Z,76.9
2016-11-05T06:23:37.142Z,76.9
2016-11-05T06:24:38.580Z,76.9
2016-11-05T06:26:41.925Z,76.9
2016-11-05T06:27:43.386Z,76.9
2016-11-05T06:28:45.337Z,76.9
2016-11-05T06:29:46.772Z,76.9
2016-11-05T06:30:48.205Z,76.9
2016-11-05T06:31:49.644Z,76.9
2016-11-05T06:32:51.592Z,76.9
2016-11-05T06:33:53.031Z,76.9
2016-11-05T06:34:54.502Z,76.9
2016-11-05T06:35:55.945Z,76.9
2016-11-05T06:36:57.883Z,76.9
2016-11-05T06:39:00.723Z,76.9
2016-11-05T06:40:02.299Z,76.9
2016-11-05T06:41:04.256Z,76.9
2016-11-05T06:42:05.694Z,76.9
2016-11-05T06:43:07.134Z,76.9
2016-11-05T06:44:08.573Z,76.9
2016-11-05T06:45:10.521Z,76.9
2016-11-05T06:46:12.193Z,76.8
2016-11-05T06:47:13.630Z,76.8
2016-11-05T06:48:15.073Z,76.8
2016-11-05T06:49:16.512Z,76.8
2016-11-05T06:50:18.456Z,76.8
2016-11-05T06:51:19.898Z,76.8
2016-11-05T06:52:21.337Z,76.8
2016-11-05T06:53:22.776Z,76.8
2016-11-05T06:54:24.720Z,76.8
2016-11-05T06:56:27.562Z,76.8
2016-11-05T06:57:29.507Z,76.8
2016-11-05T06:58:30.947Z,76.8
2016-11-05T06:59:32.390Z,76.8
2016-11-05T07:00:33.825Z,76.8
2016-11-05T07:01:35.763Z,76.8
2016-11-05T07:02:37.200Z,76.8
2016-11-05T07:03:38.641Z,76.8
2016-11-05T07:04:40.580Z,76.8
2016-11-05T07:05:42.019Z,76.8
2016-11-05T07:06:43.452Z,76.8
2016-11-05T07:07:44.887Z,76.8
2016-11-05T07:08:46.835Z,76.8
2016-11-05T07:10:49.677Z,76.8
2016-11-05T07:11:51.616Z,76.8
2016-11-05T07:12:53.055Z,76.8
2016-11-05T07:13:54.499Z,76.8
2016-11-05T07:14:55.936Z,76.8
2016-11-05T07:15:57.880Z,76.8
2016-11-05T07:16:59.325Z,76.8
2016-11-05T07:18:00.763Z,76.8
2016-11-05T07:19:02.707Z,76.8
2016-11-05T07:20:04.146Z,76.8
2016-11-05T07:21:05.589Z,76.8
2016-11-05T07:22:07.028Z,76.8
2016-11-05T07:23:08.969Z,76.8
2016-11-05T07:24:10.404Z,76.8
2016-11-05T07:25:11.849Z,76.8
2016-11-05T07:26:13.794Z,76.7
2016-11-05T07:28:16.636Z,76.7
2016-11-05T07:29:18.125Z,76.7
2016-11-05T07:30:20.068Z,76.7
2016-11-05T07:31:21.515Z,76.7
2016-11-05T07:32:22.955Z,76.7
2016-11-05T07:33:24.895Z,76.7
2016-11-05T07:35:28.078Z,76.7
2016-11-05T07:36:29.518Z,76.7
2016-11-05T07:37:30.962Z,76.7
2016-11-05T07:38:32.401Z,76.7
2016-11-05T07:40:35.750Z,76.7
2016-11-05T07:41:37.187Z,76.7
2016-11-05T07:42:39.138Z,76.7
2016-11-05T07:43:40.572Z,76.7
2016-11-05T07:44:42.013Z,76.7
2016-11-05T07:45:43.455Z,76.7
2016-11-05T07:46:45.406Z,76.7
2016-11-05T07:47:46.968Z,76.7
2016-11-05T07:48:48.392Z,76.7
2016-11-05T07:49:49.844Z,76.7
2016-11-05T07:51:53.191Z,76.6
2016-11-05T07:52:54.635Z,76.6
2016-11-05T07:53:56.574Z,76.6
2016-11-05T07:54:58.021Z,76.6
2016-11-05T07:55:59.463Z,76.6
2016-11-05T07:57:00.903Z,76.6
2016-11-05T07:58:02.851Z,76.6
2016-11-05T07:59:04.295Z,76.6
2016-11-05T08:00:05.731Z,76.6
2016-11-05T08:01:07.673Z,76.6
2016-11-05T08:02:09.111Z,76.6
2016-11-05T08:03:10.551Z,76.5
2016-11-05T08:04:12.493Z,76.5
2016-11-05T08:05:13.934Z,76.5
2016-11-05T08:06:15.385Z,76.5
2016-11-05T08:07:16.823Z,76.5
2016-11-05T08:08:18.774Z,76.5
2016-11-05T08:09:20.211Z,76.5
2016-11-05T08:10:21.655Z,76.5
2016-11-05T08:11:23.617Z,76.5
2016-11-05T08:12:25.055Z,76.5
2016-11-05T08:13:26.500Z,76.5
2016-11-05T08:14:28.441Z,76.4
2016-11-05T08:16:31.281Z,76.4
2016-11-05T08:17:33.231Z,76.4
2016-11-05T08:18:34.804Z,76.4
2016-11-05T08:19:36.246Z,76.3
2016-11-05T08:20:37.688Z,76.3
2016-11-05T08:21:39.634Z,76.3
2016-11-05T08:22:41.078Z,76.3
2016-11-05T08:23:42.520Z,76.3
2016-11-05T08:24:44.464Z,76.2
2016-11-05T08:25:45.906Z,76.2
2016-11-05T08:26:47.346Z,76.2
2016-11-05T08:27:49.287Z,76.2
2016-11-05T08:28:50.728Z,76.2
2016-11-05T08:29:52.177Z,76.2
2016-11-05T08:30:54.186Z,76.2
2016-11-05T08:31:55.628Z,76.2
2016-11-05T08:32:57.070Z,76.2
2016-11-05T08:35:00.419Z,76.2
2016-11-05T08:36:01.860Z,76.2
2016-11-05T08:37:03.802Z,76.2
2016-11-05T08:38:05.237Z,76.2
2016-11-05T08:41:09.993Z,76.2
2016-11-05T08:43:13.373Z,76.3
2016-11-05T08:44:14.987Z,76.3
2016-11-05T08:45:16.432Z,76.3
2016-11-05T08:46:18.376Z,76.3
2016-11-05T08:47:19.817Z,76.3
2016-11-05T08:48:21.266Z,76.3
2016-11-05T08:50:24.626Z,76.3
2016-11-05T08:51:26.066Z,76.3
2016-11-05T08:52:28.013Z,76.3
2016-11-05T08:53:29.451Z,76.3
2016-11-05T08:54:30.893Z,76.3
2016-11-05T08:56:34.242Z,76.3
2016-11-05T08:57:36.187Z,76.3
2016-11-05T08:59:39.065Z,76.3
2016-11-05T09:00:41.019Z,76.3
2016-11-05T09:01:42.456Z,76.3
2016-11-05T09:02:43.899Z,76.3
2016-11-05T09:03:45.838Z,76.3
2016-11-05T09:04:47.273Z,76.3
2016-11-05T09:05:48.710Z,76.3
2016-11-05T09:06:50.668Z,76.3
2016-11-05T09:07:52.107Z,76.3
2016-11-05T09:08:54.063Z,76.3
2016-11-05T09:09:55.500Z,76.3
2016-11-05T09:10:56.944Z,76.3
2016-11-05T09:11:58.891Z,76.3
2016-11-05T09:14:01.740Z,76.3
2016-11-05T09:15:03.687Z,76.3
2016-11-05T09:16:05.128Z,76.4
2016-11-05T09:17:07.091Z,76.4
2016-11-05T09:19:09.946Z,76.4
2016-11-05T09:20:11.897Z,76.4
2016-11-05T09:21:13.344Z,76.4
2016-11-05T09:22:14.787Z,76.4
2016-11-05T09:23:16.794Z,76.4
2016-11-05T09:24:18.238Z,76.4
2016-11-05T09:25:19.680Z,76.4
2016-11-05T09:26:21.620Z,76.5
2016-11-05T09:27:23.063Z,76.5
2016-11-05T09:28:25.009Z,76.5
2016-11-05T09:29:26.453Z,76.5
2016-11-05T09:30:27.892Z,76.5
2016-11-05T09:31:29.844Z,76.5
2016-11-05T09:32:31.288Z,76.5
2016-11-05T09:33:32.731Z,76.5
2016-11-05T09:34:34.673Z,76.5
2016-11-05T09:35:36.112Z,76.5
2016-11-05T09:36:38.061Z,76.5
2016-11-05T09:37:39.501Z,76.5
2016-11-05T09:39:42.845Z,76.4
2016-11-05T09:40:44.283Z,76.4
2016-11-05T09:41:46.227Z,76.4
2016-11-05T09:42:47.662Z,76.4
2016-11-05T09:43:49.099Z,76.3
2016-11-05T09:44:51.073Z,76.3
2016-11-05T09:46:54.328Z,76.3
2016-11-05T09:47:56.023Z,76.3
2016-11-05T09:48:57.413Z,76.3
2016-11-05T09:49:59.300Z,76.3
2016-11-05T09:51:00.843Z,76.3
2016-11-05T09:52:02.389Z,76.3
2016-11-05T09:53:03.987Z,76.3
2016-11-05T09:54:05.928Z,76.2
2016-11-05T09:55:07.362Z,76.2
2016-11-05T09:57:10.713Z,76.2
2016-11-05T09:58:12.153Z,76.2
2016-11-05T09:59:14.104Z,76.2
2016-11-05T10:00:15.686Z,76.3
2016-11-05T10:01:17.130Z,76.3
2016-11-05T10:03:20.482Z,76.3
2016-11-05T10:04:22.427Z,76.3
2016-11-05T10:05:23.875Z,76.3
2016-11-05T10:06:25.448Z,76.3
2016-11-05T10:07:27.391Z,76.3
2016-11-05T10:08:28.840Z,76.3
2016-11-05T10:09:30.284Z,76.4
2016-11-05T10:10:32.230Z,76.4
2016-11-05T10:11:33.672Z,76.4
2016-11-05T10:12:35.616Z,76.4
2016-11-05T10:13:37.055Z,76.4
2016-11-05T10:14:39.000Z,76.4
2016-11-05T10:15:40.507Z,76.4
2016-11-05T10:16:41.950Z,76.5
2016-11-05T10:17:43.900Z,76.5
2016-11-05T10:18:45.340Z,76.5
2016-11-05T10:19:46.779Z,76.5
2016-11-05T10:20:48.722Z,76.5
2016-11-05T10:21:50.293Z,76.6
2016-11-05T10:22:52.237Z,76.6
2016-11-05T10:23:53.683Z,76.6
2016-11-05T10:24:55.267Z,76.6
2016-11-05T10:25:56.713Z,76.6
2016-11-05T10:26:58.655Z,76.7
2016-11-05T10:28:00.102Z,76.7
2016-11-05T10:29:02.046Z,76.7
2016-11-05T10:30:03.485Z,76.7
2016-11-05T10:31:05.432Z,76.7
2016-11-05T10:32:06.875Z,76.7
2016-11-05T10:33:08.320Z,76.8
2016-11-05T10:34:10.291Z,76.8
2016-11-05T10:35:11.733Z,76.8
2016-11-05T10:36:13.680Z,76.8
2016-11-05T10:37:15.117Z,76.8
2016-11-05T10:38:16.560Z,76.9
2016-11-05T10:39:18.517Z,76.9
2016-11-05T10:40:19.959Z,76.9
2016-11-05T10:41:21.927Z,76.9
2016-11-05T10:42:23.371Z,76.9
2016-11-05T10:43:25.316Z,76.9
2016-11-05T10:44:26.763Z,76.9
2016-11-05T10:45:28.207Z,76.9
2016-11-05T10:46:30.153Z,76.9
2016-11-05T10:47:31.629Z,76.9
2016-11-05T10:48:33.077Z,76.9
2016-11-05T10:49:35.021Z,77
2016-11-05T10:50:36.595Z,77
2016-11-05T10:52:39.958Z,77
2016-11-05T10:53:41.402Z,77
2016-11-05T10:55:44.877Z,77
2016-11-05T10:56:46.329Z,77
2016-11-05T10:57:48.415Z,77
2016-11-05T10:58:49.865Z,77
2016-11-05T10:59:51.308Z,77.1
2016-11-05T11:00:53.247Z,77.1
2016-11-05T11:01:54.685Z,77.1
2016-11-05T11:02:56.630Z,77.1
2016-11-05T11:03:58.077Z,77.1
2016-11-05T11:04:59.512Z,77.1
2016-11-05T11:07:02.861Z,77.2
2016-11-05T11:08:04.808Z,77.2
2016-11-05T11:09:06.249Z,77.2
2016-11-05T11:11:09.605Z,77.2
2016-11-05T11:12:11.048Z,77.2
2016-11-05T11:13:13.002Z,77.2
2016-11-05T11:14:14.544Z,77.2
2016-11-05T11:15:15.985Z,77.2
2016-11-05T11:16:17.936Z,77.2
2016-11-05T11:17:19.374Z,77.2
2016-11-05T11:18:21.311Z,77.2
2016-11-05T11:19:23.002Z,77.2
2016-11-05T11:20:24.442Z,77.2
2016-11-05T11:21:25.881Z,77.2
2016-11-05T11:22:27.823Z,77.2
2016-11-05T11:23:29.263Z,77.2
2016-11-05T11:24:31.207Z,77.2
2016-11-05T11:25:32.707Z,77.2
2016-11-05T11:26:34.148Z,77.2
2016-11-05T11:27:36.194Z,77.2
2016-11-05T11:28:37.633Z,77.2
2016-11-05T11:29:39.076Z,77.2
2016-11-05T11:30:41.020Z,77.2
2016-11-05T11:31:42.457Z,77.2
2016-11-05T11:32:44.401Z,77.2
2016-11-05T11:33:45.842Z,77.2
2016-11-05T11:34:47.283Z,77.1
2016-11-05T11:35:49.227Z,77.1
2016-11-05T11:36:50.666Z,77.1
2016-11-05T11:37:52.610Z,77.1
2016-11-05T11:38:54.190Z,77.1
2016-11-05T11:39:55.631Z,77.1
2016-11-05T11:40:57.174Z,77.1
2016-11-05T11:41:59.130Z,77.1
2016-11-05T11:43:00.576Z,77.1
2016-11-05T11:44:02.519Z,77.1
2016-11-05T11:45:03.957Z,77.1
2016-11-05T11:46:05.396Z,77.1
2016-11-05T11:47:07.339Z,77.1
2016-11-05T11:48:08.781Z,77.1
2016-11-05T11:49:10.757Z,77.1
2016-11-05T11:50:12.202Z,77.1
2016-11-05T11:51:13.645Z,77.1
2016-11-05T11:52:15.590Z,77.1
2016-11-05T11:53:17.031Z,77.1
2016-11-05T11:54:18.987Z,77
2016-11-05T11:55:20.645Z,77
2016-11-05T11:56:22.084Z,77
2016-11-05T11:57:23.519Z,77
2016-11-05T11:58:25.459Z,77
2016-11-05T11:59:26.896Z,77
2016-11-05T12:01:30.255Z,77
2016-11-05T12:02:32.261Z,77
2016-11-05T12:03:33.701Z,77
2016-11-05T12:04:35.152Z,77
2016-11-05T12:05:36.865Z,77
2016-11-05T12:07:40.213Z,77
2016-11-05T12:08:41.658Z,77
2016-11-05T12:09:43.606Z,77.1
2016-11-05T12:10:45.047Z,77.1
2016-11-05T12:11:46.988Z,77.1
2016-11-05T12:12:48.422Z,77.1
2016-11-05T12:14:51.768Z,77.1
2016-11-05T12:15:53.209Z,77.1
2016-11-05T12:16:55.166Z,77.1
2016-11-05T12:17:56.612Z,77.2
2016-11-05T12:18:58.548Z,77.2
2016-11-05T12:19:59.986Z,77.2
2016-11-05T12:22:03.338Z,77.2
2016-11-05T12:23:04.776Z,77.2
2016-11-05T12:24:06.719Z,77.2
2016-11-05T12:25:08.157Z,77.3
2016-11-05T12:26:10.110Z,77.3
2016-11-05T12:27:11.616Z,77.3
2016-11-05T12:28:13.056Z,77.4
2016-11-05T12:29:14.997Z,77.4
2016-11-05T12:30:16.433Z,77.4
2016-11-05T12:31:18.381Z,77.4
2016-11-05T12:32:19.821Z,77.5
2016-11-05T12:33:21.758Z,77.5
2016-11-05T12:34:23.199Z,77.5
2016-11-05T12:35:24.639Z,77.6
2016-11-05T12:36:26.580Z,77.6
2016-11-05T12:37:28.020Z,77.6
2016-11-05T12:39:31.363Z,77.7
2016-11-05T12:40:33.307Z,77.7
2016-11-05T12:41:34.745Z,77.7
2016-11-05T12:42:36.182Z,77.7
2016-11-05T12:43:38.139Z,77.8
2016-11-05T12:44:39.585Z,77.8
2016-11-05T12:45:41.535Z,77.8
2016-11-05T12:46:43.118Z,77.8
2016-11-05T12:47:44.556Z,77.9
2016-11-05T12:48:46.241Z,77.9
2016-11-05T12:49:47.683Z,77.9
2016-11-05T12:50:49.630Z,77.9
2016-11-05T12:53:54.379Z,78
2016-11-05T12:54:56.325Z,78.1
2016-11-05T12:55:57.766Z,78.1
2016-11-05T12:56:59.211Z,78.1
2016-11-05T12:58:01.155Z,78.2
2016-11-05T12:59:02.661Z,78.2
2016-11-05T13:00:04.606Z,78.3
2016-11-05T13:02:07.444Z,78.4
2016-11-05T13:03:09.393Z,78.4
2016-11-05T13:04:10.860Z,78.5
2016-11-05T13:06:14.215Z,78.6
2016-11-05T13:07:16.162Z,78.6
2016-11-05T13:08:17.604Z,78.6
2016-11-05T13:09:19.050Z,78.7
2016-11-05T13:10:20.997Z,78.7
2016-11-05T13:11:22.442Z,78.8
2016-11-05T13:12:24.388Z,78.8
2016-11-05T13:13:25.831Z,78.9
2016-11-05T13:14:27.272Z,78.9
2016-11-05T13:15:29.217Z,79
2016-11-05T13:16:30.657Z,79
2016-11-05T13:18:34.005Z,79.1
2016-11-05T13:19:35.450Z,79.2
2016-11-05T13:20:37.399Z,79.2
2016-11-05T13:21:38.840Z,79.2
2016-11-05T13:22:40.786Z,79.3
2016-11-05T13:23:42.236Z,79.3
2016-11-05T13:24:43.675Z,79.4
2016-11-05T13:25:45.620Z,79.4
2016-11-05T13:26:47.066Z,79.5
2016-11-05T13:27:49.014Z,79.5
2016-11-05T13:28:50.456Z,79.6
2016-11-05T13:29:51.897Z,79.6
2016-11-05T13:30:53.853Z,79.7
2016-11-05T13:31:55.295Z,79.7
2016-11-05T13:32:57.242Z,79.8
2016-11-05T13:33:58.681Z,79.8
2016-11-05T13:35:00.124Z,79.9
2016-11-05T13:36:02.072Z,79.9
2016-11-05T13:37:03.516Z,79.9
2016-11-05T13:38:05.465Z,80
2016-11-05T13:39:06.947Z,80.1
2016-11-05T13:40:08.386Z,80.1
2016-11-05T13:41:10.163Z,80.1
2016-11-05T13:43:13.517Z,80.2
2016-11-05T13:44:14.957Z,80.3
2016-11-05T13:46:18.307Z,80.4
2016-11-05T13:47:20.248Z,80.5
2016-11-05T13:48:21.693Z,80.6
2016-11-05T13:49:23.133Z,80.8
2016-11-05T13:50:25.077Z,80.9
2016-11-05T13:51:26.517Z,81
2016-11-05T13:52:28.466Z,81.2
2016-11-05T13:53:29.907Z,81.3
2016-11-05T13:54:31.352Z,81.4
2016-11-05T13:55:33.300Z,81.5
2016-11-05T13:56:34.751Z,81.6
2016-11-05T13:57:36.691Z,81.7
2016-11-05T13:58:38.129Z,81.8
2016-11-05T13:59:39.565Z,81.8
2016-11-05T14:00:41.504Z,81.9
2016-11-05T14:01:42.944Z,82
2016-11-05T14:04:48.205Z,82.2
2016-11-05T14:05:49.708Z,82.3
2016-11-05T14:06:51.154Z,82.4
2016-11-05T14:07:53.105Z,82.5
2016-11-05T14:09:56.458Z,82.6
2016-11-05T14:10:57.897Z,82.7
2016-11-05T14:11:59.337Z,82.8
2016-11-05T14:13:01.284Z,82.9
2016-11-05T14:14:02.727Z,83
2016-11-05T14:15:04.686Z,83
2016-11-05T14:16:06.131Z,83.1
2016-11-05T14:17:07.568Z,83.2
2016-11-05T14:18:09.577Z,83.3
2016-11-05T14:19:11.027Z,83.3
2016-11-05T14:20:12.467Z,83.4
2016-11-05T14:21:14.407Z,83.5
2016-11-05T14:22:15.859Z,83.5
2016-11-05T14:23:17.810Z,83.6
2016-11-05T14:24:19.251Z,83.6
2016-11-05T14:25:20.690Z,83.7
2016-11-05T14:27:24.034Z,83.8
2016-11-05T14:28:25.977Z,83.9
2016-11-05T14:29:27.423Z,84.1
2016-11-05T14:30:28.900Z,84.2
2016-11-05T14:32:32.246Z,84.5
2016-11-05T14:33:34.195Z,84.6
2016-11-05T14:34:35.636Z,84.7
2016-11-05T14:35:37.083Z,84.8
2016-11-05T14:36:39.058Z,84.9
2016-11-05T14:37:40.498Z,85
2016-11-05T14:38:41.938Z,85.1
2016-11-05T14:39:43.880Z,85.2
2016-11-05T14:40:45.319Z,85.3
2016-11-05T14:41:47.265Z,85.4
2016-11-05T14:42:48.708Z,85.5
2016-11-05T14:43:50.146Z,85.6
2016-11-05T14:44:52.086Z,85.7
2016-11-05T14:45:53.529Z,85.7
2016-11-05T14:47:56.879Z,85.9
2016-11-05T14:48:58.507Z,86
2016-11-05T14:50:00.456Z,86
2016-11-05T14:51:01.929Z,86.1
2016-11-05T14:52:03.366Z,86.2
2016-11-05T14:53:05.313Z,86.2
2016-11-05T14:54:06.757Z,86.3
2016-11-05T14:55:08.196Z,86.3
2016-11-05T14:56:10.133Z,86.4
2016-11-05T14:57:11.572Z,86.4
2016-11-05T14:58:13.527Z,86.5
2016-11-05T14:59:14.966Z,86.6
2016-11-05T15:00:16.403Z,86.6
2016-11-05T15:01:18.357Z,86.7
2016-11-05T15:02:19.800Z,86.7
2016-11-05T15:03:21.744Z,86.8